Time;durP1;ratioP1;P1;durP2;ratioP2;P2;SDS_P1;SDS_P2;PMS_P1;PMS_P2;Temp;Humidity;BMP_temperature;BMP_pressure;BME280_temperature;BME280_humidity;BME280_pressure;Samples;Min_cycle;Max_cycle;Signal;HPM_P1;HPM_P2
2022/04/24 00:02:15;;;;;;;9.10;6.45;;;11.70;14.10;;;;;;5005591;28;25164;-68
2022/04/24 00:04:41;;;;;;;10.23;6.45;;;11.70;14.30;;;;;;5004514;28;25103;-68
2022/04/24 00:07:09;;;;;;;8.93;6.53;;;11.60;14.40;;;;;;5006134;28;25065;-68
2022/04/24 00:09:37;;;;;;;6.63;5.93;;;11.60;14.40;;;;;;5006029;28;25170;-67
2022/04/24 00:12:04;;;;;;;8.52;7.07;;;11.60;14.20;;;;;;5005010;28;25080;-67
2022/04/24 00:14:29;;;;;;;14.27;6.88;;;11.60;14.40;;;;;;5004877;28;25058;-67
2022/04/24 00:16:55;;;;;;;9.75;6.57;;;11.60;14.60;;;;;;5004831;28;25114;-68
2022/04/24 00:19:20;;;;;;;7.40;6.57;;;11.60;14.80;;;;;;5004983;28;25055;-68
2022/04/24 00:21:46;;;;;;;8.23;6.30;;;11.60;14.50;;;;;;5005762;28;25077;-67
2022/04/24 00:24:12;;;;;;;8.90;6.78;;;11.70;14.40;;;;;;5006980;28;25130;-67
2022/04/24 00:26:39;;;;;;;10.73;6.18;;;11.70;15.00;;;;;;5005515;28;25075;-69
2022/04/24 00:29:04;;;;;;;7.68;5.88;;;11.70;14.20;;;;;;5006445;28;25118;-68
2022/04/24 00:31:30;;;;;;;10.48;6.20;;;11.70;14.30;;;;;;5002307;28;25077;-68
2022/04/24 00:33:56;;;;;;;9.93;7.03;;;11.70;14.20;;;;;;5006458;28;25065;-68
2022/04/24 00:36:21;;;;;;;7.72;6.43;;;11.60;14.60;;;;;;5007083;28;25126;-67
2022/04/24 00:38:47;;;;;;;12.43;6.70;;;11.60;14.50;;;;;;5015137;28;25088;-67
2022/04/24 00:41:13;;;;;;;9.77;6.43;;;11.60;14.60;;;;;;5016830;28;25061;-69
2022/04/24 00:43:38;;;;;;;8.38;6.18;;;11.60;14.70;;;;;;5012849;28;25142;-71
2022/04/24 00:46:20;;;;;;;7.40;6.50;;;11.50;14.80;;;;;;5005796;28;25055;-67
2022/04/24 00:48:46;;;;;;;9.20;6.32;;;11.40;14.90;;;;;;5005540;28;25077;-66
2022/04/24 00:51:12;;;;;;;7.13;5.97;;;11.40;15.30;;;;;;5022124;28;25123;-67
2022/04/24 00:53:38;;;;;;;9.30;7.45;;;11.40;15.30;;;;;;5005212;28;25171;-69
2022/04/24 00:56:05;;;;;;;7.95;6.57;;;11.30;15.60;;;;;;5003752;28;25073;-67
2022/04/24 00:58:32;;;;;;;7.80;6.97;;;11.30;16.20;;;;;;5004581;28;25094;-68
2022/04/24 01:00:59;;;;;;;13.02;7.95;;;11.20;16.60;;;;;;5004939;28;25071;-70
2022/04/24 01:03:25;;;;;;;9.35;6.60;;;11.10;17.10;;;;;;5005839;28;25069;-68
2022/04/24 01:05:50;;;;;;;7.05;6.25;;;11.10;17.50;;;;;;5005914;28;25085;-68
2022/04/24 01:08:16;;;;;;;7.40;6.43;;;11.00;17.80;;;;;;5005303;28;25083;-69
2022/04/24 01:10:42;;;;;;;7.38;6.47;;;11.00;17.80;;;;;;5008537;28;25144;-69
2022/04/24 01:13:07;;;;;;;11.85;7.13;;;11.00;18.20;;;;;;5007227;28;25058;-67
2022/04/24 01:15:34;;;;;;;7.80;6.53;;;10.90;18.90;;;;;;5004612;28;25053;-67
2022/04/24 01:18:00;;;;;;;7.72;6.90;;;10.90;19.30;;;;;;5006269;28;25053;-68
2022/04/24 01:20:26;;;;;;;7.45;6.70;;;10.90;19.40;;;;;;5005321;28;25144;-67
2022/04/24 01:22:52;;;;;;;10.05;6.95;;;10.80;19.90;;;;;;5002965;28;25070;-68
2022/04/24 01:25:21;;;;;;;8.95;6.65;;;10.80;20.20;;;;;;5006008;28;25062;-68
2022/04/24 01:27:46;;;;;;;8.38;7.40;;;10.80;20.50;;;;;;5004564;28;25085;-67
2022/04/24 01:30:12;;;;;;;7.90;7.10;;;10.80;20.30;;;;;;5006440;28;25062;-68
2022/04/24 01:32:39;;;;;;;9.35;6.93;;;10.80;20.30;;;;;;5004288;28;25059;-68
2022/04/24 01:35:06;;;;;;;8.60;7.13;;;10.90;20.20;;;;;;5005838;28;25099;-67
2022/04/24 01:37:32;;;;;;;9.48;7.82;;;10.80;20.10;;;;;;5004022;28;25074;-68
2022/04/24 01:39:58;;;;;;;9.00;7.50;;;10.80;20.40;;;;;;5005522;28;25140;-66
2022/04/24 01:42:24;;;;;;;8.15;6.88;;;10.80;20.60;;;;;;5006118;28;25117;-69
2022/04/24 01:44:50;;;;;;;8.38;7.38;;;10.80;20.80;;;;;;5008539;28;25081;-68
2022/04/24 01:47:16;;;;;;;9.23;6.93;;;10.80;21.00;;;;;;5005436;28;25058;-67
2022/04/24 01:49:41;;;;;;;12.07;7.22;;;10.70;21.70;;;;;;5010304;28;25061;-67
2022/04/24 01:52:07;;;;;;;8.18;7.30;;;10.70;22.00;;;;;;5011730;28;25059;-69
2022/04/24 01:54:33;;;;;;;10.43;7.45;;;10.60;22.20;;;;;;5013023;28;25073;-68
2022/04/24 01:56:59;;;;;;;9.10;7.68;;;10.60;22.50;;;;;;5011714;28;25064;-68
2022/04/24 01:59:25;;;;;;;10.55;7.05;;;10.60;22.80;;;;;;5013703;28;25052;-67
2022/04/24 02:01:50;;;;;;;10.85;8.35;;;10.60;23.20;;;;;;5011956;28;25059;-68
2022/04/24 02:04:18;;;;;;;8.60;7.50;;;10.60;23.10;;;;;;5010636;28;25149;-68
2022/04/24 02:06:44;;;;;;;9.02;7.32;;;10.50;23.40;;;;;;5010885;28;25059;-68
2022/04/24 02:09:10;;;;;;;12.50;7.75;;;10.50;23.50;;;;;;5014072;28;25057;-68
2022/04/24 02:11:36;;;;;;;12.85;8.13;;;10.50;23.50;;;;;;5021280;28;25119;-67
2022/04/24 02:14:02;;;;;;;10.63;7.60;;;10.50;24.00;;;;;;5015709;28;25093;-66
2022/04/24 02:16:27;;;;;;;10.38;8.40;;;10.40;24.80;;;;;;5011122;28;25098;-67
2022/04/24 02:18:53;;;;;;;11.20;9.05;;;10.30;25.60;;;;;;5025456;28;25061;-70
2022/04/24 02:21:18;;;;;;;10.27;8.77;;;10.20;26.60;;;;;;5007459;28;25077;-67
2022/04/24 02:23:44;;;;;;;11.15;9.13;;;10.20;27.20;;;;;;5008498;28;25132;-65
2022/04/24 02:26:10;;;;;;;8.48;7.60;;;10.10;28.30;;;;;;5010708;28;25150;-68
2022/04/24 02:28:35;;;;;;;9.55;8.45;;;10.10;29.30;;;;;;5006305;28;25079;-69
2022/04/24 02:31:01;;;;;;;10.52;8.82;;;10.10;29.50;;;;;;5009620;28;25078;-67
2022/04/24 02:33:26;;;;;;;9.70;8.70;;;10.00;30.50;;;;;;5009153;28;25072;-66
2022/04/24 02:35:52;;;;;;;10.02;8.85;;;9.90;31.10;;;;;;5009356;28;25074;-67
2022/04/24 02:38:17;;;;;;;11.45;9.43;;;9.90;31.90;;;;;;5007552;28;25078;-68
2022/04/24 02:40:43;;;;;;;10.35;9.25;;;9.80;32.50;;;;;;5009540;28;25113;-69
2022/04/24 02:43:08;;;;;;;12.57;8.60;;;9.70;33.20;;;;;;5009268;28;25101;-68
2022/04/24 02:45:34;;;;;;;10.80;9.18;;;9.70;34.30;;;;;;5007627;28;25098;-69
2022/04/24 02:47:59;;;;;;;11.38;9.50;;;9.70;34.90;;;;;;5007083;28;25086;-67
2022/04/24 02:50:25;;;;;;;11.73;9.65;;;9.60;35.70;;;;;;5007633;28;25078;-67
2022/04/24 02:52:53;;;;;;;11.57;9.13;;;9.50;36.50;;;;;;5008550;28;25190;-68
2022/04/24 02:55:19;;;;;;;12.63;9.90;;;9.50;36.80;;;;;;5008450;28;25076;-69
2022/04/24 02:57:46;;;;;;;13.73;9.85;;;9.40;37.80;;;;;;5008827;28;25096;-67
2022/04/24 03:00:13;;;;;;;13.40;11.32;;;9.40;38.70;;;;;;5009340;28;25064;-68
2022/04/24 03:02:43;;;;;;;13.90;10.60;;;9.40;39.40;;;;;;5009032;28;25063;-67
2022/04/24 03:05:14;;;;;;;15.00;11.15;;;9.40;40.00;;;;;;5009012;28;25091;-67
2022/04/24 03:07:40;;;;;;;12.20;10.20;;;9.30;41.00;;;;;;5007685;28;25065;-66
2022/04/24 03:10:08;;;;;;;17.60;11.98;;;9.20;42.10;;;;;;5009300;28;25107;-67
2022/04/24 03:12:34;;;;;;;14.93;12.38;;;9.20;42.90;;;;;;5011368;28;25068;-66
2022/04/24 03:15:00;;;;;;;16.35;12.27;;;9.20;44.10;;;;;;5013119;28;25077;-67
2022/04/24 03:17:26;;;;;;;16.90;12.00;;;9.20;44.80;;;;;;5020370;28;25063;-67
2022/04/24 03:19:52;;;;;;;15.10;11.52;;;9.20;45.80;;;;;;5031094;28;25053;-69
2022/04/24 03:22:17;;;;;;;21.98;12.07;;;9.10;47.10;;;;;;5032182;28;25066;-67
2022/04/24 03:24:43;;;;;;;15.38;12.35;;;9.10;47.70;;;;;;5036293;28;25081;-67
2022/04/24 03:27:08;;;;;;;15.48;13.35;;;9.10;49.00;;;;;;5031906;28;25058;-67
2022/04/24 03:29:34;;;;;;;19.25;13.07;;;9.10;49.30;;;;;;5013859;28;25080;-65
2022/04/24 03:31:59;;;;;;;16.95;12.68;;;9.20;49.40;;;;;;5009658;28;25091;-66
2022/04/24 03:34:26;;;;;;;18.20;13.60;;;9.20;49.80;;;;;;5006626;28;25055;-66
2022/04/24 03:36:52;;;;;;;17.83;13.93;;;9.20;51.00;;;;;;5008105;28;25064;-68
2022/04/24 03:39:17;;;;;;;17.67;13.02;;;9.10;52.00;;;;;;5007034;28;25058;-68
2022/04/24 03:41:43;;;;;;;16.80;13.85;;;9.20;52.70;;;;;;5008289;28;25065;-67
2022/04/24 03:44:08;;;;;;;20.67;14.07;;;9.10;53.40;;;;;;5008140;28;25081;-66
2022/04/24 03:46:34;;;;;;;16.40;13.40;;;9.10;53.80;;;;;;5008073;28;25062;-65
2022/04/24 03:48:59;;;;;;;19.63;14.40;;;9.10;54.50;;;;;;5010157;28;25070;-67
2022/04/24 03:51:25;;;;;;;23.10;13.68;;;9.10;54.50;;;;;;5009374;28;25051;-66
2022/04/24 03:53:50;;;;;;;19.35;14.25;;;9.10;56.20;;;;;;5008747;28;25134;-67
2022/04/24 03:56:16;;;;;;;18.92;13.85;;;9.00;56.80;;;;;;5007928;28;25071;-67
2022/04/24 03:58:41;;;;;;;24.02;15.05;;;9.00;57.90;;;;;;5007861;28;25065;-66
2022/04/24 04:01:07;;;;;;;20.70;15.27;;;9.00;59.00;;;;;;5007785;28;25076;-66
2022/04/24 04:03:32;;;;;;;18.58;14.70;;;8.90;59.30;;;;;;5007418;28;25063;-68
2022/04/24 04:05:58;;;;;;;17.75;14.10;;;8.90;60.00;;;;;;5006798;28;25125;-67
2022/04/24 04:08:23;;;;;;;18.63;14.88;;;8.90;60.00;;;;;;5013118;28;25108;-68
2022/04/24 04:10:49;;;;;;;22.08;15.13;;;8.90;60.00;;;;;;5018287;28;25070;-68
2022/04/24 04:13:15;;;;;;;22.08;14.10;;;8.90;59.70;;;;;;5014724;28;25071;-68
2022/04/24 04:15:41;;;;;;;22.10;14.65;;;8.90;60.00;;;;;;5010632;28;25101;-70
2022/04/24 04:18:07;;;;;;;19.83;15.02;;;8.80;60.20;;;;;;5007215;28;25085;-68
2022/04/24 04:20:33;;;;;;;19.23;14.55;;;8.80;60.60;;;;;;5006007;28;25075;-67
2022/04/24 04:22:59;;;;;;;19.55;14.13;;;8.80;60.90;;;;;;5006614;28;25165;-67
2022/04/24 04:25:25;;;;;;;18.08;13.38;;;8.80;60.50;;;;;;5007599;28;25076;-68
2022/04/24 04:27:54;;;;;;;17.55;14.10;;;8.80;60.80;;;;;;5007366;28;25112;-68
2022/04/24 04:30:20;;;;;;;20.13;13.63;;;8.80;61.30;;;;;;5005731;28;25082;-69
2022/04/24 04:32:46;;;;;;;19.27;14.02;;;8.70;61.60;;;;;;5006601;28;25073;-68
2022/04/24 04:35:12;;;;;;;20.08;13.40;;;8.80;61.30;;;;;;5006905;28;25061;-68
2022/04/24 04:37:39;;;;;;;19.17;14.20;;;8.70;61.10;;;;;;5006500;28;25186;-67
2022/04/24 04:40:07;;;;;;;21.85;14.15;;;8.70;61.50;;;;;;5005334;28;25161;-68
2022/04/24 04:42:32;;;;;;;17.67;14.13;;;8.70;61.30;;;;;;5006726;28;25052;-68
2022/04/24 04:45:00;;;;;;;20.73;13.30;;;8.70;61.90;;;;;;5004280;28;25072;-68
2022/04/24 04:47:27;;;;;;;15.82;13.25;;;8.70;62.30;;;;;;5004903;28;25139;-67
2022/04/24 04:49:53;;;;;;;16.08;12.82;;;8.70;61.40;;;;;;5005468;28;25066;-68
2022/04/24 04:52:19;;;;;;;16.33;12.50;;;8.70;61.60;;;;;;5007348;28;25116;-67
2022/04/24 04:54:44;;;;;;;16.48;12.00;;;8.70;61.50;;;;;;5003729;28;25096;-68
2022/04/24 04:57:09;;;;;;;16.40;12.05;;;8.70;61.50;;;;;;5004502;28;25091;-68
2022/04/24 04:59:35;;;;;;;19.67;12.93;;;8.70;61.00;;;;;;5002371;28;25054;-68
2022/04/24 05:02:01;;;;;;;15.27;12.32;;;8.70;60.80;;;;;;5003658;28;25089;-68
2022/04/24 05:04:26;;;;;;;14.82;11.88;;;8.70;60.70;;;;;;5004575;28;25073;-68
2022/04/24 05:06:52;;;;;;;16.15;12.55;;;8.70;60.70;;;;;;5001073;28;25056;-67
2022/04/24 05:09:17;;;;;;;19.52;11.77;;;8.70;60.60;;;;;;5002276;28;25051;-67
2022/04/24 05:11:43;;;;;;;14.23;11.60;;;8.70;60.10;;;;;;5002657;28;25058;-68
2022/04/24 05:14:09;;;;;;;12.90;11.07;;;8.70;60.10;;;;;;5001981;28;25127;-68
2022/04/24 05:16:34;;;;;;;15.82;11.55;;;8.70;59.60;;;;;;5001468;28;25077;-68
2022/04/24 05:19:00;;;;;;;13.60;11.75;;;8.70;59.80;;;;;;5001665;28;25120;-68
2022/04/24 05:21:25;;;;;;;16.05;11.30;;;8.70;59.10;;;;;;5000842;28;25141;-67
2022/04/24 05:23:52;;;;;;;13.35;10.95;;;8.70;59.30;;;;;;4999757;28;25076;-67
2022/04/24 05:26:18;;;;;;;18.13;10.98;;;8.80;58.70;;;;;;5015036;28;25106;-67
2022/04/24 05:28:44;;;;;;;14.85;11.20;;;8.90;57.60;;;;;;5001949;28;25149;-69
2022/04/24 05:31:10;;;;;;;14.40;11.10;;;8.90;56.50;;;;;;5002147;28;25072;-66
2022/04/24 05:33:36;;;;;;;14.32;10.43;;;9.00;55.60;;;;;;4999119;28;25107;-68
2022/04/24 05:36:01;;;;;;;17.48;10.70;;;9.00;54.50;;;;;;5000614;28;25109;-68
2022/04/24 05:38:27;;;;;;;14.68;10.30;;;9.10;54.20;;;;;;5003233;28;25169;-69
2022/04/24 05:40:53;;;;;;;14.85;10.38;;;9.10;53.40;;;;;;5003813;28;25218;-67
2022/04/24 05:43:18;;;;;;;13.32;11.10;;;9.10;52.90;;;;;;5001644;28;25074;-67
2022/04/24 05:45:45;;;;;;;15.05;10.27;;;9.20;52.30;;;;;;5000999;28;25131;-69
2022/04/24 05:48:10;;;;;;;14.52;9.60;;;9.20;51.70;;;;;;5000558;28;25199;-67
2022/04/24 05:50:36;;;;;;;13.98;10.48;;;9.30;51.10;;;;;;4998893;28;25077;-69
2022/04/24 05:53:02;;;;;;;12.07;9.77;;;9.30;50.60;;;;;;5004478;28;25093;-69
2022/04/24 05:55:28;;;;;;;12.30;9.52;;;9.40;50.60;;;;;;5001820;28;25094;-68
2022/04/24 05:57:54;;;;;;;12.48;9.55;;;9.40;49.50;;;;;;5003639;28;25069;-68
2022/04/24 06:00:21;;;;;;;15.43;10.30;;;9.50;48.90;;;;;;5004901;28;25070;-68
2022/04/24 06:02:47;;;;;;;14.75;9.68;;;9.50;48.50;;;;;;5002522;28;25067;-69
2022/04/24 06:05:12;;;;;;;11.70;9.13;;;9.60;48.00;;;;;;5003224;28;25126;-67
2022/04/24 06:07:39;;;;;;;11.73;8.85;;;9.70;47.10;;;;;;5018433;28;25144;-69
2022/04/24 06:10:06;;;;;;;11.25;9.30;;;9.70;45.70;;;;;;5002672;28;25121;-68
2022/04/24 06:12:32;;;;;;;11.20;8.32;;;9.70;44.60;;;;;;5002545;28;25150;-67
2022/04/24 06:15:05;;;;;;;10.52;8.75;;;9.80;44.70;;;;;;5002911;28;25068;-68
2022/04/24 06:17:30;;;;;;;12.52;8.93;;;9.90;44.20;;;;;;5004674;28;25071;-71
2022/04/24 06:19:56;;;;;;;12.75;8.30;;;10.00;43.00;;;;;;5004241;28;25111;-69
2022/04/24 06:22:21;;;;;;;16.10;9.48;;;10.10;41.80;;;;;;5005294;28;25159;-67
2022/04/24 06:24:49;;;;;;;9.52;8.18;;;10.20;40.50;;;;;;5004704;28;25050;-69
2022/04/24 06:27:15;;;;;;;16.02;8.60;;;10.20;39.60;;;;;;5003115;28;25167;-68
2022/04/24 06:29:40;;;;;;;10.75;8.40;;;10.20;39.40;;;;;;5005741;28;25083;-70
2022/04/24 06:32:08;;;;;;;12.90;8.98;;;10.30;39.30;;;;;;5005761;28;25114;-68
2022/04/24 06:34:33;;;;;;;10.57;7.95;;;10.30;38.70;;;;;;5006332;28;25111;-69
2022/04/24 06:36:59;;;;;;;11.55;8.88;;;10.30;38.70;;;;;;5007487;28;25090;-69
2022/04/24 06:39:25;;;;;;;12.80;8.45;;;10.40;37.50;;;;;;5010300;28;25141;-70
2022/04/24 06:41:50;;;;;;;11.80;8.10;;;10.50;36.40;;;;;;5009225;28;25067;-68
2022/04/24 06:44:16;;;;;;;12.77;7.88;;;10.50;36.40;;;;;;5009572;28;25062;-70
2022/04/24 06:46:43;;;;;;;11.32;7.57;;;10.50;35.80;;;;;;5009670;28;25059;-69
2022/04/24 06:49:09;;;;;;;8.43;7.38;;;10.70;36.20;;;;;;5009399;28;25051;-70
2022/04/24 06:51:35;;;;;;;12.93;8.18;;;10.70;34.40;;;;;;5009451;28;25135;-71
2022/04/24 06:54:00;;;;;;;10.38;7.93;;;10.70;32.60;;;;;;5009654;28;25137;-69
2022/04/24 06:56:26;;;;;;;10.02;7.18;;;10.80;32.10;;;;;;5006458;28;25143;-68
2022/04/24 06:58:52;;;;;;;14.90;8.43;;;10.90;32.20;;;;;;5009077;28;25054;-70
2022/04/24 07:01:19;;;;;;;8.32;7.35;;;10.90;31.00;;;;;;5008277;28;25072;-70
2022/04/24 07:03:45;;;;;;;9.27;7.50;;;11.00;29.90;;;;;;5007589;28;25054;-70
2022/04/24 07:06:11;;;;;;;10.48;8.23;;;11.10;30.00;;;;;;5021792;28;25053;-71
2022/04/24 07:08:36;;;;;;;13.07;7.82;;;11.20;30.10;;;;;;5008394;28;25066;-69
2022/04/24 07:11:02;;;;;;;10.30;7.25;;;11.20;30.30;;;;;;5007501;28;25064;-70
2022/04/24 07:13:27;;;;;;;10.82;7.72;;;11.40;29.40;;;;;;5008122;28;25080;-70
2022/04/24 07:15:53;;;;;;;11.25;7.68;;;11.50;28.30;;;;;;5007086;28;25084;-68
2022/04/24 07:18:18;;;;;;;13.88;7.30;;;11.60;28.10;;;;;;5007811;28;25079;-69
2022/04/24 07:20:44;;;;;;;11.00;7.70;;;11.70;26.90;;;;;;5007616;28;25109;-69
2022/04/24 07:23:11;;;;;;;10.48;7.68;;;11.70;26.40;;;;;;5008493;28;25177;-72
2022/04/24 07:25:43;;;;;;;9.85;7.55;;;11.70;25.50;;;;;;5007597;28;25109;-68
2022/04/24 07:28:09;;;;;;;11.70;7.37;;;11.90;24.70;;;;;;5011809;28;25069;-69
2022/04/24 07:30:35;;;;;;;13.02;7.53;;;12.10;24.00;;;;;;5018126;28;25067;-68
2022/04/24 07:33:01;;;;;;;11.55;7.80;;;12.30;23.20;;;;;;5012145;28;25048;-68
2022/04/24 07:35:29;;;;;;;8.90;7.32;;;12.40;22.60;;;;;;5008443;28;25144;-66
2022/04/24 07:37:55;;;;;;;11.07;7.82;;;12.50;22.50;;;;;;5007125;28;25125;-69
2022/04/24 07:40:22;;;;;;;11.02;7.13;;;12.60;21.90;;;;;;5007372;28;25131;-69
2022/04/24 07:42:53;;;;;;;8.80;7.38;;;12.70;19.10;;;;;;5007201;28;25109;-70
2022/04/24 07:45:22;;;;;;;8.05;7.25;;;12.70;19.00;;;;;;5005252;28;25077;-70
2022/04/24 07:47:49;;;;;;;10.48;7.40;;;12.90;18.60;;;;;;5007210;28;25061;-72
2022/04/24 07:50:16;;;;;;;10.88;7.95;;;13.10;17.50;;;;;;5008214;28;25069;-71
2022/04/24 07:52:42;;;;;;;8.70;7.40;;;13.00;17.40;;;;;;5007551;28;25143;-71
2022/04/24 07:55:11;;;;;;;8.95;7.47;;;13.00;19.00;;;;;;5006688;28;25085;-69
2022/04/24 07:57:37;;;;;;;11.90;6.90;;;13.00;16.70;;;;;;5003058;28;25084;-68
2022/04/24 08:00:04;;;;;;;8.60;7.25;;;13.10;17.40;;;;;;5004607;28;25177;-69
2022/04/24 08:02:29;;;;;;;10.00;7.47;;;13.20;17.00;;;;;;5005420;28;25054;-69
2022/04/24 08:04:55;;;;;;;9.88;7.45;;;13.40;16.80;;;;;;5007753;28;25059;-68
2022/04/24 08:07:22;;;;;;;10.80;8.23;;;13.60;16.00;;;;;;5006600;28;25049;-68
2022/04/24 08:09:49;;;;;;;9.10;7.43;;;13.70;14.30;;;;;;5007736;28;25066;-69
2022/04/24 08:12:15;;;;;;;9.43;7.70;;;13.60;13.50;;;;;;5005741;28;25101;-69
2022/04/24 08:14:41;;;;;;;10.93;7.65;;;13.60;14.40;;;;;;5003725;28;25066;-67
2022/04/24 08:17:06;;;;;;;12.43;8.13;;;13.70;14.00;;;;;;5006256;28;25064;-69
2022/04/24 08:19:32;;;;;;;9.02;8.13;;;13.80;13.20;;;;;;5006948;28;25077;-70
2022/04/24 08:21:57;;;;;;;8.73;7.30;;;13.90;13.10;;;;;;5007749;28;25075;-69
2022/04/24 08:24:23;;;;;;;11.88;7.60;;;14.00;13.20;;;;;;5006983;28;25168;-66
2022/04/24 08:26:49;;;;;;;11.07;7.57;;;14.00;13.30;;;;;;5001566;28;25057;-68
2022/04/24 08:29:14;;;;;;;10.38;7.45;;;14.40;13.10;;;;;;5002537;28;25064;-69
2022/04/24 08:31:40;;;;;;;9.55;7.47;;;14.60;11.20;;;;;;5001512;28;25106;-68
2022/04/24 08:34:05;;;;;;;9.00;7.55;;;14.20;11.10;;;;;;5002863;28;25076;-68
2022/04/24 08:36:31;;;;;;;11.73;7.40;;;14.10;12.00;;;;;;5000436;28;25159;-69
2022/04/24 08:38:56;;;;;;;11.10;7.68;;;14.30;12.50;;;;;;5008377;28;25073;-68
2022/04/24 08:41:24;;;;;;;15.27;7.05;;;14.30;11.20;;;;;;5006158;28;25072;-68
2022/04/24 08:43:50;;;;;;;10.32;7.75;;;14.40;11.00;;;;;;5006487;28;25060;-67
2022/04/24 08:46:16;;;;;;;9.25;8.10;;;14.60;11.00;;;;;;5007414;28;25059;-69
2022/04/24 08:48:42;;;;;;;9.57;7.20;;;14.80;11.40;;;;;;5006594;28;25062;-68
2022/04/24 08:51:10;;;;;;;10.35;7.38;;;14.90;11.30;;;;;;5008915;28;25051;-67
2022/04/24 08:53:38;;;;;;;11.15;7.82;;;15.10;11.10;;;;;;5010371;28;25067;-67
2022/04/24 08:56:03;;;;;;;10.82;7.50;;;15.10;11.10;;;;;;5010870;28;25080;-67
2022/04/24 08:58:30;;;;;;;12.25;8.40;;;15.40;9.20;;;;;;5010981;28;25049;-68
2022/04/24 09:00:56;;;;;;;9.05;7.50;;;15.00;9.80;;;;;;5010622;28;25076;-68
2022/04/24 09:03:22;;;;;;;10.05;7.97;;;15.00;11.30;;;;;;5008735;28;25066;-67
2022/04/24 09:05:47;;;;;;;9.07;8.07;;;15.10;10.50;;;;;;5010609;28;25126;-67
2022/04/24 09:08:13;;;;;;;8.20;7.05;;;15.10;8.60;;;;;;5007915;28;25062;-70
2022/04/24 09:10:54;;;;;;;10.32;7.90;;;15.00;9.30;;;;;;5010544;28;25058;-69
2022/04/24 09:13:31;;;;;;;8.02;7.05;;;15.20;10.10;;;;;;5004709;28;25086;-68
2022/04/24 09:15:58;;;;;;;9.48;7.57;;;15.60;8.70;;;;;;5004235;28;25082;-67
2022/04/24 09:18:36;;;;;;;11.20;7.47;;;15.50;8.10;;;;;;5005187;28;25059;-68
2022/04/24 09:21:02;;;;;;;9.52;7.18;;;15.70;7.60;;;;;;5003792;28;25077;-68
2022/04/24 09:23:36;;;;;;;9.15;7.90;;;15.60;6.10;;;;;;5001433;28;25090;-70
2022/04/24 09:26:01;;;;;;;9.93;7.45;;;15.50;5.20;;;;;;5002243;28;25138;-68
2022/04/24 09:28:40;;;;;;;9.95;8.25;;;15.50;7.80;;;;;;5002160;28;25075;-69
2022/04/24 09:31:07;;;;;;;9.60;7.30;;;15.70;6.30;;;;;;5002537;28;25079;-67
2022/04/24 09:33:36;;;;;;;10.20;8.10;;;15.90;6.80;;;;;;5002133;28;25128;-67
2022/04/24 09:36:02;;;;;;;9.15;7.95;;;15.90;6.30;;;;;;5000513;28;25050;-67
2022/04/24 09:38:28;;;;;;;10.48;8.50;;;15.80;7.50;;;;;;5000918;28;25047;-70
2022/04/24 09:40:53;;;;;;;11.93;7.30;;;16.00;6.50;;;;;;5002337;28;25107;-66
2022/04/24 09:43:20;;;;;;;8.57;7.63;;;16.00;6.60;;;;;;5001379;28;25073;-67
2022/04/24 09:45:56;;;;;;;8.35;7.47;;;15.80;4.40;;;;;;5006349;28;25066;-67
2022/04/24 09:48:23;;;;;;;9.55;8.27;;;15.80;4.90;;;;;;5004721;28;25110;-66
2022/04/24 09:50:49;;;;;;;13.45;7.95;;;16.00;5.80;;;;;;4999975;28;25051;-66
2022/04/24 09:53:18;;;;;;;10.93;8.35;;;16.20;6.50;;;;;;5001945;28;25050;-68
2022/04/24 09:55:44;;;;;;;10.15;7.90;;;16.20;4.30;;;;;;5003019;28;25150;-66
2022/04/24 09:58:11;;;;;;;9.23;8.32;;;16.60;3.30;;;;;;5003299;28;25085;-70
2022/04/24 10:00:37;;;;;;;10.73;8.73;;;16.70;1.30;;;;;;5002634;28;25079;-68
2022/04/24 10:03:03;;;;;;;17.75;9.90;;;16.00;4.50;;;;;;5000596;28;25079;-68
2022/04/24 10:05:30;;;;;;;14.50;8.43;;;16.40;2.90;;;;;;5004166;28;25058;-69
2022/04/24 10:07:57;;;;;;;14.07;8.15;;;16.20;2.20;;;;;;5000487;28;25217;-69
2022/04/24 10:10:23;;;;;;;10.52;9.18;;;16.20;3.80;;;;;;5006278;28;25089;-67
2022/04/24 10:12:53;;;;;;;14.50;8.27;;;16.70;2.50;;;;;;5007835;28;25085;-69
2022/04/24 10:15:21;;;;;;;9.05;7.35;;;16.80;1.80;;;;;;5007945;28;25068;-67
2022/04/24 10:17:47;;;;;;;14.70;7.38;;;16.60;3.20;;;;;;5008409;28;25068;-66
2022/04/24 10:20:47;;;;;;;14.77;7.30;;;16.90;1.50;;;;;;5007483;28;25068;-66
2022/04/24 10:23:13;;;;;;;10.15;7.32;;;17.20;1.20;;;;;;5006773;28;25062;-67
2022/04/24 10:25:42;;;;;;;10.52;7.00;;;17.10;1.00;;;;;;5007686;28;25052;-67
2022/04/24 10:28:19;;;;;;;8.30;6.85;;;17.40;1.00;;;;;;5010589;28;25053;-69
2022/04/24 10:30:57;;;;;;;8.50;6.57;;;16.80;1.00;;;;;;5009546;28;25112;-67
2022/04/24 10:33:28;;;;;;;9.90;6.90;;;16.80;1.00;;;;;;5007301;28;25064;-68
2022/04/24 10:35:59;;;;;;;8.30;6.78;;;17.00;1.00;;;;;;5007848;28;25052;-67
2022/04/24 10:38:26;;;;;;;7.38;6.60;;;17.30;1.00;;;;;;5009186;28;25071;-68
2022/04/24 10:41:17;;;;;;;9.07;6.68;;;17.70;1.00;;;;;;5008430;28;25154;-67
2022/04/24 10:43:48;;;;;;;10.50;6.65;;;17.60;1.00;;;;;;5004579;28;25094;-68
2022/04/24 10:46:38;;;;;;;14.23;7.18;;;17.80;1.00;;;;;;5018115;28;25064;-66
2022/04/24 10:49:12;;;;;;;7.07;6.38;;;17.90;1.00;;;;;;5030408;28;25120;-70
2022/04/24 10:51:42;;;;;;;8.77;6.45;;;18.10;1.00;;;;;;5036282;28;25091;-68
2022/04/24 10:54:13;;;;;;;11.05;6.60;;;17.70;1.00;;;;;;5036309;28;25051;-68
2022/04/24 10:56:50;;;;;;;12.15;7.20;;;18.00;1.00;;;;;;5031846;28;25070;-70
2022/04/24 10:59:19;;;;;;;10.23;6.70;;;17.70;1.00;;;;;;5020375;28;25118;-69
2022/04/24 11:01:50;;;;;;;7.28;6.25;;;17.50;1.00;;;;;;5009835;28;25082;-70
2022/04/24 11:04:17;;;;;;;7.77;5.90;;;17.60;1.00;;;;;;5006247;28;25066;-67
2022/04/24 11:06:53;;;;;;;7.28;6.53;;;17.70;1.00;;;;;;5008275;28;25096;-67
2022/04/24 11:09:19;;;;;;;6.13;5.47;;;17.70;1.00;;;;;;5007128;28;25073;-68
2022/04/24 11:11:49;;;;;;;9.88;6.80;;;17.90;1.00;;;;;;5009922;28;25058;-69
2022/04/24 11:14:22;;;;;;;8.82;6.75;;;17.80;1.00;;;;;;5008082;28;25158;-72
2022/04/24 11:16:59;;;;;;;8.98;6.70;;;17.80;1.00;;;;;;5006560;28;25062;-69
2022/04/24 11:19:34;;;;;;;7.93;5.82;;;18.10;1.00;;;;;;5005209;28;25064;-66
2022/04/24 11:22:07;;;;;;;8.15;7.25;;;18.30;1.00;;;;;;5007295;28;25061;-70
2022/04/24 11:24:36;;;;;;;8.60;6.82;;;17.90;1.00;;;;;;5004669;28;25075;-69
2022/04/24 11:27:04;;;;;;;11.73;6.95;;;18.30;1.00;;;;;;5007470;28;25157;-68
2022/04/24 11:29:31;;;;;;;8.38;6.97;;;18.10;1.00;;;;;;5006443;28;25082;-70
2022/04/24 11:31:56;;;;;;;8.68;6.55;;;18.10;1.00;;;;;;5007647;28;25083;-67
2022/04/24 11:34:24;;;;;;;6.63;5.97;;;18.40;1.00;;;;;;5006542;28;25066;-68
2022/04/24 11:36:54;;;;;;;10.38;6.32;;;18.80;1.00;;;;;;5006504;28;25075;-67
2022/04/24 11:39:20;;;;;;;8.45;5.63;;;18.70;1.00;;;;;;5004016;28;25096;-67
2022/04/24 11:41:46;;;;;;;8.90;6.63;;;18.90;1.00;;;;;;5006938;28;25161;-67
2022/04/24 11:50:14;;;;;;;8.07;6.45;;;18.30;1.00;;;;;;5007316;28;25124;-69
2022/04/24 11:52:44;;;;;;;11.48;6.05;;;18.30;1.00;;;;;;5006785;28;25051;-70
2022/04/24 11:55:21;;;;;;;6.90;6.20;;;18.60;1.00;;;;;;5008193;28;25084;-68
2022/04/24 11:57:59;;;;;;;11.13;6.15;;;18.50;1.00;;;;;;4990142;28;25068;-69
2022/04/24 12:00:38;;;;;;;10.68;6.55;;;19.00;1.00;;;;;;5008177;28;25100;-69
2022/04/24 12:03:06;;;;;;;10.65;6.45;;;19.10;1.00;;;;;;5007281;28;25079;-70
2022/04/24 12:05:32;;;;;;;8.23;6.88;;;19.20;1.00;;;;;;5009861;28;25057;-68
2022/04/24 12:07:57;;;;;;;11.65;6.38;;;18.50;1.00;;;;;;5007026;28;25122;-67
2022/04/24 12:10:24;;;;;;;9.25;6.40;;;18.80;1.00;;;;;;5009307;28;25075;-67
2022/04/24 12:12:52;;;;;;;7.15;6.28;;;18.80;1.00;;;;;;5012620;28;25091;-69
2022/04/24 12:15:23;;;;;;;8.80;5.97;;;19.30;1.00;;;;;;5008463;28;25073;-69
2022/04/24 12:17:52;;;;;;;8.07;5.70;;;18.80;1.00;;;;;;5011390;28;25073;-69
2022/04/24 12:20:19;;;;;;;9.15;6.07;;;19.00;1.00;;;;;;5025476;28;25113;-68
2022/04/24 12:22:44;;;;;;;7.40;6.10;;;19.00;1.00;;;;;;5008930;28;25057;-69
2022/04/24 12:25:15;;;;;;;11.95;6.93;;;18.70;1.00;;;;;;5009127;28;25123;-69
2022/04/24 12:27:52;;;;;;;12.48;7.25;;;18.60;1.00;;;;;;5008970;28;25100;-68
2022/04/24 12:30:18;;;;;;;10.65;6.63;;;18.70;1.00;;;;;;5010381;28;25159;-69
2022/04/24 12:32:43;;;;;;;10.52;5.97;;;18.60;1.00;;;;;;5011627;28;25066;-70
2022/04/24 12:35:33;;;;;;;7.20;6.05;;;18.80;1.00;;;;;;5010774;28;25088;-68
2022/04/24 12:37:59;;;;;;;7.07;6.32;;;18.80;1.00;;;;;;5012217;28;25083;-70
2022/04/24 12:40:25;;;;;;;11.20;6.18;;;18.90;1.00;;;;;;5015583;28;25064;-71
2022/04/24 12:42:55;;;;;;;8.35;6.60;;;18.10;1.00;;;;;;5022307;28;25099;-71
2022/04/24 12:45:22;;;;;;;7.97;5.82;;;17.50;1.00;;;;;;5024569;28;25109;-69
2022/04/24 12:47:48;;;;;;;13.32;5.80;;;17.80;1.00;;;;;;5015054;28;25081;-70
2022/04/24 12:50:17;;;;;;;8.18;5.05;;;18.50;1.00;;;;;;5008589;28;25063;-71